Main page
METAR-TAF:

METAR-TAF

Airports :

Valdosta Regional Airport

Valdosta, Georgia, United States

latitude: 30-47N, longitude: 083-17W, elevation: 203 ft

Current weather observation

The report was made 11 minutes ago, at 10:25 UTC
Calm wind
Temperature 70°F
Humidity 88%
Pressure 30.05 in. Hg
Visibility: 10 miles
Overcast at a height of 500 ft

METAR: KVLD 011025Z AUTO 00000KT 10SM OVC005 21/19 A3005 RMK AO2 T02060194

Time: 05:36 (10:36 UTC)

Forecast

The report was made 55 minutes ago, at 09:41 UTC
Forecast valid from 01 at 10 UTC to 02 at 06 UTC
Wind 3 mph from variable directions
Visibility: 5 miles
Broken clouds at a height of 500 ft
mist
From 01 at 1400 UTC
Wind 9 mph from the Southwest
Visibility: 6 miles
Broken clouds at a height of 1200 ft
From 01 at 1700 UTC
Wind 8 mph from the West
Visibility: 6 miles
Overcast at a height of 5000 ft

TAF: KVLD 010941Z 0110/0206 VRB03KT 5SM BR BKN005 FM011400 22008KT P6SM BKN012 FM011700 28007KT P6SM OVC050

Weather observations and forecasts of more than 4000 airports (METAR and TAF reports).

The available stations are represented by yellow and red dots on the map.

Hover mouse over dot to see the name of the station.

Then click to see weather observations and forecasts.

To change the map : click on the green buttons with a black cross to zoom in, on the green button with a dash to zoom out, or on the green arrows for adjacent maps.


METAR-TAF: